sensor_id;sensor_type;location;lat;lon;timestamp;pressure;altitude;pressure_sealevel;temperature;humidity
68197;BME280;55019;49.382;11.358;2023-03-25T00:02:06;95936.22;;;8.02;88.84
68197;BME280;55019;49.382;11.358;2023-03-25T00:04:32;95928.34;;;7.96;89.51
68197;BME280;55019;49.382;11.358;2023-03-25T00:06:59;95928.03;;;7.99;89.46
68197;BME280;55019;49.382;11.358;2023-03-25T00:09:25;95918.69;;;7.98;90.04
68197;BME280;55019;49.382;11.358;2023-03-25T00:11:51;95919.50;;;7.98;89.92
68197;BME280;55019;49.382;11.358;2023-03-25T00:14:20;95912.09;;;7.95;89.77
68197;BME280;55019;49.382;11.358;2023-03-25T00:16:45;95923.69;;;7.91;90.34
68197;BME280;55019;49.382;11.358;2023-03-25T00:19:13;95917.44;;;7.94;89.80
68197;BME280;55019;49.382;11.358;2023-03-25T00:21:40;95913.25;;;7.93;89.53
68197;BME280;55019;49.382;11.358;2023-03-25T00:24:11;95911.94;;;7.81;89.67
68197;BME280;55019;49.382;11.358;2023-03-25T00:26:43;95915.81;;;7.77;89.90
68197;BME280;55019;49.382;11.358;2023-03-25T00:29:11;95906.16;;;7.71;90.20
68197;BME280;55019;49.382;11.358;2023-03-25T00:31:38;95905.53;;;7.77;89.45
68197;BME280;55019;49.382;11.358;2023-03-25T00:34:04;95895.09;;;7.70;90.11
68197;BME280;55019;49.382;11.358;2023-03-25T00:36:30;95902.63;;;7.72;90.09
68197;BME280;55019;49.382;11.358;2023-03-25T00:38:56;95903.28;;;7.58;90.49
68197;BME280;55019;49.382;11.358;2023-03-25T00:41:24;95906.50;;;7.52;90.72
68197;BME280;55019;49.382;11.358;2023-03-25T00:43:51;95897.84;;;7.45;90.79
68197;BME280;55019;49.382;11.358;2023-03-25T00:46:18;95886.25;;;7.49;90.29
68197;BME280;55019;49.382;11.358;2023-03-25T00:48:45;95890.44;;;7.50;90.36
68197;BME280;55019;49.382;11.358;2023-03-25T00:51:11;95890.59;;;7.48;90.13
68197;BME280;55019;49.382;11.358;2023-03-25T00:53:38;95887.22;;;7.56;89.31
68197;BME280;55019;49.382;11.358;2023-03-25T00:56:05;95889.16;;;7.54;89.19
68197;BME280;55019;49.382;11.358;2023-03-25T00:58:31;95894.94;;;7.48;89.34
68197;BME280;55019;49.382;11.358;2023-03-25T01:00:57;95892.84;;;7.51;89.77
68197;BME280;55019;49.382;11.358;2023-03-25T01:03:25;95892.06;;;7.43;90.13
68197;BME280;55019;49.382;11.358;2023-03-25T01:05:53;95888.84;;;7.41;90.20
68197;BME280;55019;49.382;11.358;2023-03-25T01:08:21;95895.25;;;7.45;89.92
68197;BME280;55019;49.382;11.358;2023-03-25T01:10:53;95897.97;;;7.43;90.05
68197;BME280;55019;49.382;11.358;2023-03-25T01:13:19;95893.66;;;7.44;91.24
68197;BME280;55019;49.382;11.358;2023-03-25T01:15:45;95901.34;;;7.36;90.78
68197;BME280;55019;49.382;11.358;2023-03-25T01:18:10;95899.25;;;7.31;92.26
68197;BME280;55019;49.382;11.358;2023-03-25T01:20:38;95896.19;;;7.20;92.83
68197;BME280;55019;49.382;11.358;2023-03-25T01:23:04;95897.78;;;7.13;94.31
68197;BME280;55019;49.382;11.358;2023-03-25T01:25:30;95889.75;;;7.00;95.86
68197;BME280;55019;49.382;11.358;2023-03-25T01:27:55;95882.34;;;6.89;96.49
68197;BME280;55019;49.382;11.358;2023-03-25T01:30:21;95872.03;;;6.81;96.69
68197;BME280;55019;49.382;11.358;2023-03-25T01:32:47;95874.25;;;6.76;98.39
68197;BME280;55019;49.382;11.358;2023-03-25T01:35:12;95865.91;;;6.74;97.75
68197;BME280;55019;49.382;11.358;2023-03-25T01:37:38;95862.38;;;6.67;98.90
68197;BME280;55019;49.382;11.358;2023-03-25T01:40:04;95869.22;;;6.59;98.87
68197;BME280;55019;49.382;11.358;2023-03-25T01:42:32;95864.91;;;6.59;98.59
68197;BME280;55019;49.382;11.358;2023-03-25T01:45:28;95867.94;;;6.55;99.41
68197;BME280;55019;49.382;11.358;2023-03-25T01:48:00;95863.13;;;6.52;99.08
68197;BME280;55019;49.382;11.358;2023-03-25T01:50:28;95874.66;;;6.48;99.16
68197;BME280;55019;49.382;11.358;2023-03-25T01:52:55;95863.28;;;6.50;99.41
68197;BME280;55019;49.382;11.358;2023-03-25T01:55:22;95865.19;;;6.40;99.83
68197;BME280;55019;49.382;11.358;2023-03-25T01:57:50;95856.03;;;6.46;100.00
68197;BME280;55019;49.382;11.358;2023-03-25T02:00:19;95857.50;;;6.40;100.00
68197;BME280;55019;49.382;11.358;2023-03-25T02:02:46;95857.81;;;6.45;100.00
68197;BME280;55019;49.382;11.358;2023-03-25T02:05:17;95847.88;;;6.42;99.50
68197;BME280;55019;49.382;11.358;2023-03-25T02:07:46;95847.06;;;6.42;99.36
68197;BME280;55019;49.382;11.358;2023-03-25T02:10:14;95846.25;;;6.41;98.98
68197;BME280;55019;49.382;11.358;2023-03-25T02:12:40;95839.22;;;6.43;99.16
68197;BME280;55019;49.382;11.358;2023-03-25T02:15:07;95842.09;;;6.40;98.52
68197;BME280;55019;49.382;11.358;2023-03-25T02:37:25;95847.38;;;6.39;98.78
68197;BME280;55019;49.382;11.358;2023-03-25T02:40:08;95852.63;;;6.37;98.32
68197;BME280;55019;49.382;11.358;2023-03-25T02:42:48;95857.75;;;6.37;98.05
68197;BME280;55019;49.382;11.358;2023-03-25T02:48:06;95848.63;;;6.35;98.06
68197;BME280;55019;49.382;11.358;2023-03-25T02:50:45;95853.66;;;6.44;97.53
68197;BME280;55019;49.382;11.358;2023-03-25T02:53:17;95857.19;;;6.43;97.22
68197;BME280;55019;49.382;11.358;2023-03-25T02:55:46;95860.34;;;6.37;97.26
68197;BME280;55019;49.382;11.358;2023-03-25T02:58:16;95847.22;;;6.40;97.69
68197;BME280;55019;49.382;11.358;2023-03-25T03:00:43;95851.41;;;6.41;97.71
68197;BME280;55019;49.382;11.358;2023-03-25T03:03:10;95858.06;;;6.34;97.85
68197;BME280;55019;49.382;11.358;2023-03-25T03:05:49;95854.06;;;6.32;97.35
68197;BME280;55019;49.382;11.358;2023-03-25T03:22:26;95865.28;;;6.31;95.95
68197;BME280;55019;49.382;11.358;2023-03-25T03:28:06;95853.56;;;6.28;95.07
68197;BME280;55019;49.382;11.358;2023-03-25T03:33:15;95853.44;;;6.30;95.10
68197;BME280;55019;49.382;11.358;2023-03-25T03:36:29;95857.13;;;6.35;94.51
68197;BME280;55019;49.382;11.358;2023-03-25T03:38:40;95856.16;;;6.36;94.66
68197;BME280;55019;49.382;11.358;2023-03-25T03:41:10;95868.34;;;6.34;94.53
68197;BME280;55019;49.382;11.358;2023-03-25T03:43:42;95867.09;;;6.38;95.06
68197;BME280;55019;49.382;11.358;2023-03-25T03:46:29;95866.16;;;6.39;94.72
68197;BME280;55019;49.382;11.358;2023-03-25T03:48:58;95868.72;;;6.39;94.75
68197;BME280;55019;49.382;11.358;2023-03-25T03:51:29;95870.34;;;6.48;94.44
68197;BME280;55019;49.382;11.358;2023-03-25T03:54:13;95865.53;;;6.45;94.72
68197;BME280;55019;49.382;11.358;2023-03-25T03:56:46;95873.34;;;6.44;93.96
68197;BME280;55019;49.382;11.358;2023-03-25T03:59:43;95871.94;;;6.41;94.38
68197;BME280;55019;49.382;11.358;2023-03-25T04:02:33;95865.78;;;6.34;93.92
68197;BME280;55019;49.382;11.358;2023-03-25T04:05:07;95853.75;;;6.35;94.29
68197;BME280;55019;49.382;11.358;2023-03-25T04:07:41;95871.94;;;6.41;94.20
68197;BME280;55019;49.382;11.358;2023-03-25T04:10:21;95862.44;;;6.42;93.51
68197;BME280;55019;49.382;11.358;2023-03-25T04:12:54;95869.84;;;6.45;93.65
68197;BME280;55019;49.382;11.358;2023-03-25T04:15:22;95869.03;;;6.44;93.29
68197;BME280;55019;49.382;11.358;2023-03-25T04:17:48;95876.56;;;6.46;92.96
68197;BME280;55019;49.382;11.358;2023-03-25T04:20:21;95866.78;;;6.41;92.36
68197;BME280;55019;49.382;11.358;2023-03-25T04:22:49;95876.09;;;6.42;92.81
68197;BME280;55019;49.382;11.358;2023-03-25T04:25:16;95864.88;;;6.43;93.00
68197;BME280;55019;49.382;11.358;2023-03-25T04:27:42;95868.72;;;6.39;92.98
68197;BME280;55019;49.382;11.358;2023-03-25T04:30:14;95876.53;;;6.38;92.90
68197;BME280;55019;49.382;11.358;2023-03-25T04:32:44;95874.44;;;6.33;93.46
68197;BME280;55019;49.382;11.358;2023-03-25T04:35:14;95877.00;;;6.33;92.70
68197;BME280;55019;49.382;11.358;2023-03-25T04:37:41;95878.25;;;6.29;94.23
68197;BME280;55019;49.382;11.358;2023-03-25T04:40:13;95906.34;;;6.31;93.82
68197;BME280;55019;49.382;11.358;2023-03-25T04:42:41;95879.38;;;6.27;93.25
68197;BME280;55019;49.382;11.358;2023-03-25T04:45:08;95888.03;;;6.26;93.16
68197;BME280;55019;49.382;11.358;2023-03-25T04:47:39;95881.09;;;6.18;93.43
68197;BME280;55019;49.382;11.358;2023-03-25T04:50:28;95890.56;;;6.18;94.40
68197;BME280;55019;49.382;11.358;2023-03-25T04:52:54;95891.97;;;6.12;94.32
68197;BME280;55019;49.382;11.358;2023-03-25T04:55:25;95895.81;;;6.08;93.71
68197;BME280;55019;49.382;11.358;2023-03-25T04:57:53;95888.75;;;6.10;92.87
68197;BME280;55019;49.382;11.358;2023-03-25T05:00:23;95891.97;;;6.12;90.27
68197;BME280;55019;49.382;11.358;2023-03-25T05:02:52;95905.75;;;6.11;89.70
68197;BME280;55019;49.382;11.358;2023-03-25T05:05:21;95895.69;;;6.18;89.80
68197;BME280;55019;49.382;11.358;2023-03-25T05:07:52;95886.72;;;6.14;87.97
68197;BME280;55019;49.382;11.358;2023-03-25T05:10:20;95909.28;;;6.10;87.52
68197;BME280;55019;49.382;11.358;2023-03-25T05:12:46;95891.97;;;6.12;87.67
68197;BME280;55019;49.382;11.358;2023-03-25T05:15:13;95907.06;;;6.15;86.94
68197;BME280;55019;49.382;11.358;2023-03-25T05:17:39;95907.06;;;6.15;85.45
68197;BME280;55019;49.382;11.358;2023-03-25T05:20:06;95898.41;;;6.16;84.04
68197;BME280;55019;49.382;11.358;2023-03-25T05:22:36;95913.97;;;6.15;83.08
68197;BME280;55019;49.382;11.358;2023-03-25T05:25:07;95924.66;;;6.10;83.79
68197;BME280;55019;49.382;11.358;2023-03-25T05:27:34;95916.97;;;6.10;83.25
68197;BME280;55019;49.382;11.358;2023-03-25T05:30:00;95913.88;;;6.07;83.26
68197;BME280;55019;49.382;11.358;2023-03-25T05:32:27;95934.41;;;6.07;84.22
68197;BME280;55019;49.382;11.358;2023-03-25T05:35:01;95920.44;;;6.01;83.06
68197;BME280;55019;49.382;11.358;2023-03-25T05:37:27;95926.88;;;6.05;83.48
68197;BME280;55019;49.382;11.358;2023-03-25T05:39:53;95925.88;;;5.98;83.07
68197;BME280;55019;49.382;11.358;2023-03-25T05:42:19;95931.13;;;5.97;82.91
68197;BME280;55019;49.382;11.358;2023-03-25T05:44:49;95940.78;;;6.03;83.42
68197;BME280;55019;49.382;11.358;2023-03-25T05:47:19;95944.47;;;6.00;83.97
68197;BME280;55019;49.382;11.358;2023-03-25T05:49:47;95934.66;;;5.96;83.47
68197;BME280;55019;49.382;11.358;2023-03-25T05:52:13;95928.44;;;5.98;83.84
68197;BME280;55019;49.382;11.358;2023-03-25T05:54:42;95940.66;;;6.04;83.97
68197;BME280;55019;49.382;11.358;2023-03-25T05:57:10;95941.56;;;5.95;84.87
68197;BME280;55019;49.382;11.358;2023-03-25T05:59:36;95951.22;;;6.01;84.44
68197;BME280;55019;49.382;11.358;2023-03-25T06:02:15;95944.13;;;5.95;83.49
68197;BME280;55019;49.382;11.358;2023-03-25T06:04:41;95952.31;;;5.99;84.16
68197;BME280;55019;49.382;11.358;2023-03-25T06:07:11;95946.81;;;5.94;83.60
68197;BME280;55019;49.382;11.358;2023-03-25T06:09:48;95951.47;;;5.90;84.78
68197;BME280;55019;49.382;11.358;2023-03-25T06:12:16;95960.78;;;5.91;84.27
68197;BME280;55019;49.382;11.358;2023-03-25T06:14:42;95959.16;;;5.90;84.36
68197;BME280;55019;49.382;11.358;2023-03-25T06:17:16;95961.06;;;5.88;84.38
68197;BME280;55019;49.382;11.358;2023-03-25T06:19:43;95965.59;;;5.94;83.24
68197;BME280;55019;49.382;11.358;2023-03-25T06:22:10;95950.88;;;5.96;83.16
68197;BME280;55019;49.382;11.358;2023-03-25T06:24:37;95955.03;;;5.97;82.91
68197;BME280;55019;49.382;11.358;2023-03-25T06:27:21;95965.69;;;6.10;83.22
68197;BME280;55019;49.382;11.358;2023-03-25T06:29:48;95963.19;;;6.18;82.82
68197;BME280;55019;49.382;11.358;2023-03-25T06:32:14;95964.44;;;6.14;81.65
68197;BME280;55019;49.382;11.358;2023-03-25T06:34:40;95948.53;;;6.11;82.32
68197;BME280;55019;49.382;11.358;2023-03-25T06:37:09;95967.31;;;6.11;82.36
68197;BME280;55019;49.382;11.358;2023-03-25T06:39:35;95962.22;;;6.19;82.48
68197;BME280;55019;49.382;11.358;2023-03-25T06:42:14;95962.88;;;6.21;81.63
68197;BME280;55019;49.382;11.358;2023-03-25T06:45:02;95961.78;;;6.24;81.48
68197;BME280;55019;49.382;11.358;2023-03-25T06:47:40;95962.97;;;6.37;82.07
68197;BME280;55019;49.382;11.358;2023-03-25T06:50:06;95965.75;;;6.44;81.04
68197;BME280;55019;49.382;11.358;2023-03-25T06:52:32;95972.03;;;6.49;81.18
68197;BME280;55019;49.382;11.358;2023-03-25T06:54:58;95967.50;;;6.43;81.01
68197;BME280;55019;49.382;11.358;2023-03-25T06:57:24;95968.34;;;6.52;80.66
68197;BME280;55019;49.382;11.358;2023-03-25T06:59:50;95980.38;;;6.51;79.87
68197;BME280;55019;49.382;11.358;2023-03-25T07:02:17;95971.41;;;6.55;81.16
68197;BME280;55019;49.382;11.358;2023-03-25T07:04:43;95966.66;;;6.68;80.51
68197;BME280;55019;49.382;11.358;2023-03-25T07:07:08;95967.94;;;6.64;78.84
68197;BME280;55019;49.382;11.358;2023-03-25T07:09:34;95967.66;;;6.75;79.82
68197;BME280;55019;49.382;11.358;2023-03-25T07:12:03;95967.53;;;6.85;78.32
68197;BME280;55019;49.382;11.358;2023-03-25T07:14:29;95973.94;;;6.81;78.16
68197;BME280;55019;49.382;11.358;2023-03-25T07:16:55;95970.13;;;6.93;78.48
68197;BME280;55019;49.382;11.358;2023-03-25T07:19:21;95972.94;;;7.23;79.14
68197;BME280;55019;49.382;11.358;2023-03-25T07:21:47;95969.16;;;7.43;77.96
68197;BME280;55019;49.382;11.358;2023-03-25T07:24:12;95965.78;;;7.58;77.09
68197;BME280;55019;49.382;11.358;2023-03-25T07:26:38;95966.53;;;7.35;77.40
68197;BME280;55019;49.382;11.358;2023-03-25T07:29:04;95965.53;;;7.12;77.80
68197;BME280;55019;49.382;11.358;2023-03-25T07:31:30;95968.13;;;7.20;78.50
68197;BME280;55019;49.382;11.358;2023-03-25T07:33:56;95968.16;;;7.36;78.47
68197;BME280;55019;49.382;11.358;2023-03-25T07:36:24;95974.25;;;7.35;78.69
68197;BME280;55019;49.382;11.358;2023-03-25T07:38:51;95997.84;;;7.14;77.48
68197;BME280;55019;49.382;11.358;2023-03-25T07:41:17;95982.38;;;7.07;77.99
68197;BME280;55019;49.382;11.358;2023-03-25T07:44:08;95973.22;;;7.04;78.64
68197;BME280;55019;49.382;11.358;2023-03-25T07:46:36;95992.47;;;7.00;79.16
68197;BME280;55019;49.382;11.358;2023-03-25T07:49:01;95993.03;;;6.86;79.24
68197;BME280;55019;49.382;11.358;2023-03-25T07:51:27;95996.25;;;6.88;78.85
68197;BME280;55019;49.382;11.358;2023-03-25T07:53:54;95993.69;;;6.88;79.05
68197;BME280;55019;49.382;11.358;2023-03-25T07:56:20;95992.28;;;6.94;79.45
68197;BME280;55019;49.382;11.358;2023-03-25T07:58:46;96002.72;;;6.92;78.26
68197;BME280;55019;49.382;11.358;2023-03-25T08:01:14;95997.13;;;7.05;78.56
68197;BME280;55019;49.382;11.358;2023-03-25T08:03:40;96000.00;;;7.43;77.31
68197;BME280;55019;49.382;11.358;2023-03-25T08:06:06;96010.63;;;7.88;75.65
68197;BME280;55019;49.382;11.358;2023-03-25T08:08:32;96012.59;;;8.02;75.58
68197;BME280;55019;49.382;11.358;2023-03-25T08:10:59;96008.56;;;7.99;74.43
68197;BME280;55019;49.382;11.358;2023-03-25T08:13:24;96005.16;;;7.83;74.14
68197;BME280;55019;49.382;11.358;2023-03-25T08:15:50;95996.19;;;8.35;72.62
68197;BME280;55019;49.382;11.358;2023-03-25T08:18:16;96000.44;;;8.66;71.47
68197;BME280;55019;49.382;11.358;2023-03-25T08:20:42;96001.16;;;8.44;71.55
68197;BME280;55019;49.382;11.358;2023-03-25T08:23:08;95984.56;;;8.55;70.58
68197;BME280;55019;49.382;11.358;2023-03-25T08:25:38;95978.97;;;8.89;69.51
68197;BME280;55019;49.382;11.358;2023-03-25T08:28:05;95978.63;;;8.92;67.91
68197;BME280;55019;49.382;11.358;2023-03-25T08:30:32;95994.50;;;8.73;67.83
68197;BME280;55019;49.382;11.358;2023-03-25T08:33:05;95982.97;;;8.54;69.24
68197;BME280;55019;49.382;11.358;2023-03-25T08:35:33;95992.50;;;8.37;71.70
68197;BME280;55019;49.382;11.358;2023-03-25T08:37:59;95997.00;;;8.35;71.38
68197;BME280;55019;49.382;11.358;2023-03-25T08:40:26;95993.06;;;8.71;71.04
68197;BME280;55019;49.382;11.358;2023-03-25T08:42:52;95990.97;;;8.66;68.28
68197;BME280;55019;49.382;11.358;2023-03-25T08:45:18;95992.72;;;8.66;67.89
68197;BME280;55019;49.382;11.358;2023-03-25T08:47:44;95989.69;;;8.62;67.51
68197;BME280;55019;49.382;11.358;2023-03-25T08:50:11;96001.31;;;8.58;67.92
68197;BME280;55019;49.382;11.358;2023-03-25T08:52:37;95971.63;;;8.78;67.51
68197;BME280;55019;49.382;11.358;2023-03-25T08:55:04;95980.16;;;8.79;65.85
68197;BME280;55019;49.382;11.358;2023-03-25T08:57:34;95986.38;;;8.92;67.17
68197;BME280;55019;49.382;11.358;2023-03-25T09:00:01;95978.25;;;9.11;65.24
68197;BME280;55019;49.382;11.358;2023-03-25T09:02:27;95974.38;;;9.15;63.85
68197;BME280;55019;49.382;11.358;2023-03-25T09:04:52;95985.75;;;9.29;65.37
68197;BME280;55019;49.382;11.358;2023-03-25T09:07:18;95977.75;;;8.69;63.41
68197;BME280;55019;49.382;11.358;2023-03-25T09:09:45;95980.72;;;8.97;64.63
68197;BME280;55019;49.382;11.358;2023-03-25T09:12:11;95961.13;;;9.71;60.86
68197;BME280;55019;49.382;11.358;2023-03-25T09:14:37;95961.19;;;10.08;61.15
68197;BME280;55019;49.382;11.358;2023-03-25T09:17:03;95964.91;;;9.83;59.74
68197;BME280;55019;49.382;11.358;2023-03-25T09:19:32;95976.47;;;9.65;61.88
68197;BME280;55019;49.382;11.358;2023-03-25T09:21:57;95959.38;;;9.41;61.58
68197;BME280;55019;49.382;11.358;2023-03-25T09:24:23;95949.63;;;9.59;60.97
68197;BME280;55019;49.382;11.358;2023-03-25T09:26:49;95958.16;;;10.56;58.93
68197;BME280;55019;49.382;11.358;2023-03-25T09:29:15;95968.97;;;10.37;61.43
68197;BME280;55019;49.382;11.358;2023-03-25T09:31:41;95950.09;;;11.23;59.47
68197;BME280;55019;49.382;11.358;2023-03-25T09:34:07;95959.41;;;11.74;57.90
68197;BME280;55019;49.382;11.358;2023-03-25T09:36:33;95952.72;;;11.30;59.44
68197;BME280;55019;49.382;11.358;2023-03-25T09:38:59;95954.53;;;11.64;56.98
68197;BME280;55019;49.382;11.358;2023-03-25T09:44:27;95963.84;;;10.80;58.72
68197;BME280;55019;49.382;11.358;2023-03-25T09:46:55;95963.97;;;10.21;58.92
68197;BME280;55019;49.382;11.358;2023-03-25T09:50:04;95966.84;;;9.81;61.24
68197;BME280;55019;49.382;11.358;2023-03-25T09:52:36;95980.28;;;9.77;63.01
68197;BME280;55019;49.382;11.358;2023-03-25T09:55:08;95963.84;;;10.66;59.98
68197;BME280;55019;49.382;11.358;2023-03-25T09:57:44;95965.19;;;11.41;58.83
68197;BME280;55019;49.382;11.358;2023-03-25T10:00:16;95971.50;;;10.74;60.25
68197;BME280;55019;49.382;11.358;2023-03-25T10:10:52;95953.47;;;11.24;56.41
68197;BME280;55019;49.382;11.358;2023-03-25T10:24:16;95934.34;;;10.31;55.35
68197;BME280;55019;49.382;11.358;2023-03-25T10:27:02;95933.19;;;9.97;57.57
68197;BME280;55019;49.382;11.358;2023-03-25T10:29:38;95920.28;;;10.48;57.17
68197;BME280;55019;49.382;11.358;2023-03-25T10:32:14;95930.50;;;10.13;58.13
68197;BME280;55019;49.382;11.358;2023-03-25T10:34:47;95932.41;;;9.74;59.72
68197;BME280;55019;49.382;11.358;2023-03-25T10:37:33;95927.81;;;9.84;58.61
68197;BME280;55019;49.382;11.358;2023-03-25T10:40:12;95925.50;;;9.52;57.87
68197;BME280;55019;49.382;11.358;2023-03-25T10:42:44;95927.72;;;9.55;59.58
68197;BME280;55019;49.382;11.358;2023-03-25T10:45:14;95928.56;;;9.25;60.44
68197;BME280;55019;49.382;11.358;2023-03-25T10:47:42;95915.13;;;9.07;61.31
68197;BME280;55019;49.382;11.358;2023-03-25T10:50:14;95914.91;;;8.94;62.26
68197;BME280;55019;49.382;11.358;2023-03-25T10:52:41;95927.44;;;8.89;66.96
68197;BME280;55019;49.382;11.358;2023-03-25T10:55:22;95917.16;;;8.89;69.79
68197;BME280;55019;49.382;11.358;2023-03-25T10:57:50;95916.84;;;8.84;70.08
68197;BME280;55019;49.382;11.358;2023-03-25T11:00:17;95918.44;;;8.85;68.54
68197;BME280;55019;49.382;11.358;2023-03-25T11:02:44;95906.50;;;8.92;68.58
68197;BME280;55019;49.382;11.358;2023-03-25T11:05:11;95925.72;;;8.82;69.14
68197;BME280;55019;49.382;11.358;2023-03-25T11:07:45;95914.19;;;8.62;73.01
68197;BME280;55019;49.382;11.358;2023-03-25T11:12:41;95904.25;;;8.59;78.01
68197;BME280;55019;49.382;11.358;2023-03-25T11:15:24;95911.19;;;8.89;76.66
68197;BME280;55019;49.382;11.358;2023-03-25T11:17:59;95908.78;;;8.87;74.63
68197;BME280;55019;49.382;11.358;2023-03-25T11:20:28;95897.97;;;8.92;76.40
68197;BME280;55019;49.382;11.358;2023-03-25T11:25:44;95930.44;;;8.24;75.92
68197;BME280;55019;49.382;11.358;2023-03-25T11:28:18;95949.06;;;7.94;77.53
68197;BME280;55019;49.382;11.358;2023-03-25T11:31:08;95944.44;;;6.93;84.69
68197;BME280;55019;49.382;11.358;2023-03-25T11:33:36;95943.56;;;6.68;90.82
68197;BME280;55019;49.382;11.358;2023-03-25T11:36:24;95958.13;;;6.34;91.35
68197;BME280;55019;49.382;11.358;2023-03-25T11:38:56;95951.97;;;6.19;93.93
68197;BME280;55019;49.382;11.358;2023-03-25T11:41:22;95955.13;;;6.13;92.89
68197;BME280;55019;49.382;11.358;2023-03-25T11:43:48;95945.47;;;6.07;93.68
68197;BME280;55019;49.382;11.358;2023-03-25T11:46:16;95945.63;;;6.31;94.28
68197;BME280;55019;49.382;11.358;2023-03-25T11:48:44;95934.53;;;7.06;96.31
68197;BME280;55019;49.382;11.358;2023-03-25T11:51:27;95939.91;;;7.76;93.81
68197;BME280;55019;49.382;11.358;2023-03-25T11:53:56;95940.22;;;7.81;90.54
68197;BME280;55019;49.382;11.358;2023-03-25T11:56:40;95934.78;;;7.76;91.43
68197;BME280;55019;49.382;11.358;2023-03-25T11:59:08;95932.53;;;7.81;93.51
68197;BME280;55019;49.382;11.358;2023-03-25T12:01:46;95926.44;;;7.58;93.39
68197;BME280;55019;49.382;11.358;2023-03-25T12:04:18;95925.59;;;7.41;92.94
68197;BME280;55019;49.382;11.358;2023-03-25T12:07:07;95925.13;;;7.54;94.60
68197;BME280;55019;49.382;11.358;2023-03-25T12:09:34;95918.72;;;7.58;95.21
68197;BME280;55019;49.382;11.358;2023-03-25T12:15:31;95923.34;;;7.46;93.75
68197;BME280;55019;49.382;11.358;2023-03-25T12:23:18;95893.63;;;7.84;94.75
68197;BME280;55019;49.382;11.358;2023-03-25T12:34:37;95892.06;;;8.83;91.26
68197;BME280;55019;49.382;11.358;2023-03-25T12:45:35;95855.44;;;11.08;78.60
68197;BME280;55019;49.382;11.358;2023-03-25T12:54:02;95847.31;;;11.73;74.31
68197;BME280;55019;49.382;11.358;2023-03-25T12:59:30;95841.34;;;12.34;72.28
68197;BME280;55019;49.382;11.358;2023-03-25T13:04:42;95847.69;;;13.06;67.98
68197;BME280;55019;49.382;11.358;2023-03-25T13:07:19;95848.50;;;12.32;66.86
68197;BME280;55019;49.382;11.358;2023-03-25T13:10:02;95853.53;;;10.81;71.55
68197;BME280;55019;49.382;11.358;2023-03-25T13:12:52;95837.50;;;10.85;69.96
68197;BME280;55019;49.382;11.358;2023-03-25T13:15:37;95833.34;;;10.91;71.99
68197;BME280;55019;49.382;11.358;2023-03-25T13:18:16;95827.50;;;10.47;69.71
68197;BME280;55019;49.382;11.358;2023-03-25T13:20:47;95822.59;;;10.08;69.02
68197;BME280;55019;49.382;11.358;2023-03-25T13:23:19;95809.03;;;9.92;72.01
68197;BME280;55019;49.382;11.358;2023-03-25T13:25:53;95801.13;;;9.42;72.53
68197;BME280;55019;49.382;11.358;2023-03-25T13:28:26;95817.56;;;9.27;74.85
68197;BME280;55019;49.382;11.358;2023-03-25T13:30:54;95866.69;;;9.25;77.56
68197;BME280;55019;49.382;11.358;2023-03-25T13:33:29;95916.59;;;7.21;84.06
68197;BME280;55019;49.382;11.358;2023-03-25T13:36:21;95898.88;;;6.45;89.59
68197;BME280;55019;49.382;11.358;2023-03-25T13:38:53;95893.94;;;6.18;91.20
68197;BME280;55019;49.382;11.358;2023-03-25T13:41:55;95880.03;;;5.95;92.47
68197;BME280;55019;49.382;11.358;2023-03-25T13:44:26;95882.09;;;6.25;94.32
68197;BME280;55019;49.382;11.358;2023-03-25T13:47:04;95883.53;;;6.61;92.98
68197;BME280;55019;49.382;11.358;2023-03-25T13:49:38;95896.97;;;7.12;92.31
68197;BME280;55019;49.382;11.358;2023-03-25T13:52:06;95894.28;;;7.38;89.18
68197;BME280;55019;49.382;11.358;2023-03-25T13:54:47;95888.47;;;7.28;90.48
68197;BME280;55019;49.382;11.358;2023-03-25T14:01:07;95883.84;;;7.79;90.95
68197;BME280;55019;49.382;11.358;2023-03-25T14:09:03;95879.28;;;9.20;88.02
68197;BME280;55019;49.382;11.358;2023-03-25T14:11:42;95873.66;;;11.00;81.07
68197;BME280;55019;49.382;11.358;2023-03-25T14:14:14;95862.22;;;11.30;76.78
68197;BME280;55019;49.382;11.358;2023-03-25T14:16:46;95864.31;;;11.82;77.45
68197;BME280;55019;49.382;11.358;2023-03-25T14:19:18;95865.31;;;10.69;77.30
68197;BME280;55019;49.382;11.358;2023-03-25T14:21:49;95862.78;;;10.25;79.69
68197;BME280;55019;49.382;11.358;2023-03-25T14:24:22;95923.94;;;8.82;83.44
68197;BME280;55019;49.382;11.358;2023-03-25T14:26:52;95947.56;;;7.20;89.24
68197;BME280;55019;49.382;11.358;2023-03-25T14:29:30;95889.72;;;6.92;87.54
68197;BME280;55019;49.382;11.358;2023-03-25T14:34:43;95904.19;;;8.13;89.03
68197;BME280;55019;49.382;11.358;2023-03-25T14:37:23;95881.25;;;8.57;91.97
68197;BME280;55019;49.382;11.358;2023-03-25T14:39:59;95885.00;;;8.77;88.29
68197;BME280;55019;49.382;11.358;2023-03-25T14:42:40;95894.41;;;9.68;86.34
68197;BME280;55019;49.382;11.358;2023-03-25T14:47:59;95873.84;;;10.84;80.38
68197;BME280;55019;49.382;11.358;2023-03-25T14:50:31;95883.19;;;11.55;79.25
68197;BME280;55019;49.382;11.358;2023-03-25T14:53:04;95896.19;;;11.62;78.40
68197;BME280;55019;49.382;11.358;2023-03-25T14:55:40;95881.88;;;11.45;76.80
68197;BME280;55019;49.382;11.358;2023-03-25T14:58:31;95870.63;;;12.01;74.40
68197;BME280;55019;49.382;11.358;2023-03-25T15:01:35;95878.50;;;11.65;73.48
68197;BME280;55019;49.382;11.358;2023-03-25T15:04:07;95870.59;;;11.11;70.01
68197;BME280;55019;49.382;11.358;2023-03-25T15:06:50;95865.16;;;10.56;70.83
68197;BME280;55019;49.382;11.358;2023-03-25T15:26:34;95872.34;;;8.14;80.48
68197;BME280;55019;49.382;11.358;2023-03-25T15:49:11;95870.09;;;8.73;77.43
68197;BME280;55019;49.382;11.358;2023-03-25T15:54:32;95876.22;;;8.64;77.83
68197;BME280;55019;49.382;11.358;2023-03-25T16:00:16;95869.59;;;8.69;78.75
68197;BME280;55019;49.382;11.358;2023-03-25T16:03:03;95875.56;;;8.70;78.42
68197;BME280;55019;49.382;11.358;2023-03-25T16:05:33;95880.88;;;8.68;79.06